Terminal Aerodrome Forecast
Issued by NWS Wilmington, OH

Current Version | Previous Version | Graphics & Text | Print | Product List | Glossary On
Versions: 1 2 3 4 5 6 7 8 9 10 11 12 13 14 15 16 17 18 19 20 21 22 23 24 25 26 27 28
000
FTUS41 KILN 212237 AAB
TAFCVG
TAF AMD
KCVG 212237Z 2123/2224 25006KT P6SM VCTS BKN040CB
      TEMPO 2123/2201 5SM -SHRA BKN035
     FM220100 VRB03KT P6SM SCT045 BKN200
     FM221400 23010G18KT P6SM SCT045=

USA.gov is the U.S. government's official web portal to all federal, state and local government web resources and services.